Arnold, KS

2:37 AM CDT on August 05, 2015 (GMT -0500)
14204 270 Road | | Change Station
CLOSE
Current Station
Personal Weather Station
Location: Arnold, KS
Elevation: 2549 ft
Nearby Weather Stations

Elev 2549 ft 38.65 °N, 99.99 °W | Updated 12 seconds ago

Partly Cloudy
Partly Cloudy
68.0 °F
Feels Like 68.0 °F
N
2.0
Wind Variable Wind from NW
Gusts 6.0 mph

Today
High -- | Low -- °F
--% Chance of Precip.
Yesterday
High -- | Low -- °F
Precip. -- in
6:45 AM 8:46 PM
Waning Gibbous, 70% visible
Pressure 29.93 in
Visibility 4.0 miles
Clouds Scattered Clouds 800 ft
Mostly Cloudy 1400 ft
Overcast 3700 ft
Dew Point 66 °F
Humidity 94%
Rainfall 0.00 in
Snow Depth Not available.
UV 0 out of 12
Pollen 1.70 out of 12
Air Quality Not available.
Flu Activity Not available.
METAR KHYS 050735Z AUTO 15004KT 4SM TS SCT008 BKN014 OVC037 22/17 A2993 RMK AO1 LTG DSNT SE P0002

More Conditions Fewer Conditions

Pressure 29.93 in
Visibility 4.0 miles
Clouds Scattered Clouds 800 ft
Mostly Cloudy 1400 ft
Overcast 3700 ft
Dew Point 66 °F
Humidity 94%
Rainfall 0.00 in
Snow Depth Not available.
UV 0 out of 12
Pollen 1.70 out of 12
Air Quality Not available.
Flu Activity Not available.
METAR KHYS 050735Z AUTO 15004KT 4SM TS SCT008 BKN014 OVC037 22/17 A2993 RMK AO1 LTG DSNT SE P0002

More Conditions Fewer Conditions

10-Day Weather Forecast

×

Almanac

Astronomy

Aug. 05, 2015 Rise Set
Actual Time
Civil Twilight
Nautical Twilight
Astronomical Twilight
Moon
Length of Visible Light
Length of Day
Tomorrow will be .
, % of the Moon is Illuminated

Today's Extremes

State Highs State Lows

Community

WunderPhotos

Upload Photos

1,844,105 photos uploaded!

WunderBlogs® & News

Nearby

Air Quality

  Air Quality AQ Index Pollutant
Not available.

Snow Depth

Station Depth Elevation

Earthquake Activity

City Distance Mag. Time & Date
Minimum magnitude displayed is 2.5.

Coastal Water Temperatures

Place Temperature

Stations

Nearby Weather Stations

Station Location Temp. Windchill Dew Point Humidity Wind Precip. Elev Updated Type